A7ABI OMDB-OBBI
Flight info
| Callsign | A7ABI |
|---|---|
| Flight time | N/A |
| Altitude | 8000 |
| Route | DCT |
| Aircraft | BE36/L-BDFGLORY/S |
Departure
| Time | 2026-05-04 13:13 |
|---|---|
| Airport | Dubai International Airport (OMDB) |
Arrival
| Time | N/A |
|---|---|
| Airport | Bahrain International Airport (OBBI) |
| Time | Latitude | Longitude | Altitude | Speed | Heading |
|---|---|---|---|---|---|
| 2026-05-04 13:02 | 25.25280 | 55.38495 | 15 ft | 0 kts | 32° |
| 2026-05-04 13:08 | 25.25293 | 55.38496 | 15 ft | 5 kts | 333° |
| 2026-05-04 13:08 | 25.25265 | 55.38457 | 15 ft | 12 kts | 195° |
| 2026-05-04 13:09 | 25.25170 | 55.38411 | 15 ft | 18 kts | 206° |
| 2026-05-04 13:09 | 25.25050 | 55.38335 | 16 ft | 22 kts | 213° |
| 2026-05-04 13:09 | 25.24935 | 55.38248 | 16 ft | 13 kts | 213° |
| 2026-05-04 13:09 | 25.24848 | 55.38191 | 18 ft | 12 kts | 207° |
| 2026-05-04 13:10 | 25.24843 | 55.38188 | 18 ft | 0 kts | 207° |
| 2026-05-04 13:11 | 25.24842 | 55.38188 | 18 ft | 1 kts | 207° |
| 2026-05-04 13:11 | 25.24820 | 55.38174 | 19 ft | 7 kts | 213° |
| 2026-05-04 13:11 | 25.24769 | 55.38123 | 20 ft | 13 kts | 249° |
| 2026-05-04 13:11 | 25.24813 | 55.38004 | 19 ft | 26 kts | 301° |
| 2026-05-04 13:12 | 25.24993 | 55.37687 | 20 ft | 69 kts | 302° |
| 2026-05-04 13:12 | 25.25264 | 55.37209 | 142 ft | 78 kts | 301° |
| 2026-05-04 13:12 | 25.25579 | 55.36690 | 314 ft | 78 kts | 298° |
| 2026-05-04 13:12 | 25.25870 | 55.36116 | 436 ft | 93 kts | 301° |
| 2026-05-04 13:13 | 25.26211 | 55.35526 | 701 ft | 98 kts | 306° |
| 2026-05-04 13:13 | 25.26679 | 55.34832 | 619 ft | 133 kts | 304° |
| 2026-05-04 13:13 | 25.27257 | 55.33924 | 619 ft | 147 kts | 302° |
| 2026-05-04 13:13 | 25.27813 | 55.33018 | 849 ft | 140 kts | 302° |
| 2026-05-04 13:14 | 25.28337 | 55.32131 | 1117 ft | 135 kts | 302° |
| 2026-05-04 13:14 | 25.28835 | 55.31278 | 1466 ft | 129 kts | 303° |
| 2026-05-04 13:14 | 25.29318 | 55.30471 | 1823 ft | 124 kts | 303° |
| 2026-05-04 13:14 | 25.29769 | 55.29684 | 2168 ft | 117 kts | 303° |
| 2026-05-04 13:15 | 25.30179 | 55.28930 | 2510 ft | 111 kts | 303° |
| 2026-05-04 13:15 | 25.30556 | 55.28182 | 2847 ft | 109 kts | 300° |
| 2026-05-04 13:15 | 25.30915 | 55.27469 | 3185 ft | 103 kts | 301° |
| 2026-05-04 13:15 | 25.31248 | 55.26803 | 3510 ft | 95 kts | 303° |
| 2026-05-04 13:16 | 25.31530 | 55.26169 | 3786 ft | 91 kts | 301° |
| 2026-05-04 13:16 | 25.31800 | 55.25540 | 4010 ft | 89 kts | 300° |
| 2026-05-04 13:16 | 25.32077 | 55.24928 | 4175 ft | 92 kts | 303° |
| 2026-05-04 13:16 | 25.32392 | 55.24226 | 4362 ft | 109 kts | 301° |
| 2026-05-04 13:17 | 25.32759 | 55.23457 | 4557 ft | 114 kts | 301° |
| 2026-05-04 13:17 | 25.33117 | 55.22705 | 4795 ft | 109 kts | 302° |
| 2026-05-04 13:17 | 25.33469 | 55.21964 | 5033 ft | 109 kts | 302° |
| 2026-05-04 13:17 | 25.33823 | 55.21214 | 5275 ft | 111 kts | 302° |
| 2026-05-04 13:18 | 25.34182 | 55.20456 | 5522 ft | 112 kts | 302° |
| 2026-05-04 13:18 | 25.34533 | 55.19692 | 5757 ft | 111 kts | 302° |
| 2026-05-04 13:18 | 25.34884 | 55.18945 | 5996 ft | 111 kts | 302° |
| 2026-05-04 13:18 | 25.35229 | 55.18195 | 6205 ft | 109 kts | 302° |
| 2026-05-04 13:19 | 25.35584 | 55.17461 | 6378 ft | 107 kts | 305° |
| 2026-05-04 13:19 | 25.35934 | 55.16740 | 6565 ft | 106 kts | 303° |
| 2026-05-04 13:19 | 25.36265 | 55.16022 | 6746 ft | 104 kts | 302° |
| 2026-05-04 13:19 | 25.36594 | 55.15316 | 6924 ft | 102 kts | 302° |
| 2026-05-04 13:20 | 25.36918 | 55.14617 | 7099 ft | 102 kts | 302° |
| 2026-05-04 13:20 | 25.37235 | 55.13930 | 7291 ft | 106 kts | 302° |
| 2026-05-04 13:20 | 25.37580 | 55.13202 | 7486 ft | 111 kts | 302° |
| 2026-05-04 13:20 | 25.37962 | 55.12404 | 7677 ft | 122 kts | 302° |
| 2026-05-04 13:21 | 25.38372 | 55.11555 | 7864 ft | 130 kts | 302° |
| 2026-05-04 13:21 | 25.38796 | 55.10680 | 8041 ft | 129 kts | 302° |
| 2026-05-04 13:21 | 25.39218 | 55.09811 | 8215 ft | 128 kts | 302° |
| 2026-05-04 13:21 | 25.39642 | 55.08944 | 8383 ft | 128 kts | 302° |
| 2026-05-04 13:22 | 25.40069 | 55.08072 | 8501 ft | 132 kts | 302° |
| 2026-05-04 13:22 | 25.40514 | 55.07142 | 8509 ft | 141 kts | 300° |
| 2026-05-04 13:22 | 25.40968 | 55.06158 | 8516 ft | 145 kts | 301° |
| 2026-05-04 13:22 | 25.41437 | 55.05188 | 8513 ft | 141 kts | 302° |
| 2026-05-04 13:23 | 25.41899 | 55.04245 | 8519 ft | 138 kts | 302° |
| 2026-05-04 13:23 | 25.42373 | 55.03327 | 8511 ft | 137 kts | 303° |
| 2026-05-04 13:23 | 25.42803 | 55.02386 | 8507 ft | 137 kts | 300° |
| 2026-05-04 13:23 | 25.43216 | 55.01479 | 8501 ft | 130 kts | 301° |
| 2026-05-04 13:24 | 25.43642 | 55.00588 | 8500 ft | 133 kts | 302° |
| 2026-05-04 13:24 | 25.44091 | 54.99656 | 8514 ft | 140 kts | 302° |
| 2026-05-04 13:24 | 25.44560 | 54.98691 | 8517 ft | 144 kts | 302° |
| 2026-05-04 13:25 | 25.45556 | 54.96659 | 8521 ft | 156 kts | 302° |
| 2026-05-04 13:25 | 25.46083 | 54.95592 | 8516 ft | 158 kts | 302° |
| 2026-05-04 13:25 | 25.46600 | 54.94542 | 8515 ft | 152 kts | 302° |
| 2026-05-04 13:25 | 25.47087 | 54.93549 | 8513 ft | 147 kts | 302° |
| 2026-05-04 13:26 | 25.47566 | 54.92567 | 8507 ft | 143 kts | 302° |
| 2026-05-04 13:26 | 25.48034 | 54.91603 | 8499 ft | 141 kts | 302° |
| 2026-05-04 13:26 | 25.48496 | 54.90650 | 8498 ft | 140 kts | 302° |
| 2026-05-04 13:26 | 25.48955 | 54.89703 | 8499 ft | 139 kts | 302° |
| 2026-05-04 13:27 | 25.49406 | 54.88766 | 8501 ft | 138 kts | 302° |
| 2026-05-04 13:27 | 25.49860 | 54.87828 | 8500 ft | 138 kts | 302° |
| 2026-05-04 13:27 | 25.50312 | 54.86898 | 8498 ft | 138 kts | 302° |
| 2026-05-04 13:27 | 25.50765 | 54.85960 | 8499 ft | 137 kts | 302° |
| 2026-05-04 13:28 | 25.51215 | 54.85029 | 8503 ft | 137 kts | 302° |
| 2026-05-04 13:28 | 25.51668 | 54.84090 | 8502 ft | 137 kts | 302° |
| 2026-05-04 13:28 | 25.52110 | 54.83171 | 8499 ft | 137 kts | 303° |
| 2026-05-04 13:28 | 25.52585 | 54.82257 | 8499 ft | 137 kts | 304° |
| 2026-05-04 13:29 | 25.53015 | 54.81386 | 8498 ft | 117 kts | 303° |
| 2026-05-04 13:29 | 25.53356 | 54.80646 | 8496 ft | 105 kts | 302° |
| 2026-05-04 13:29 | 25.53711 | 54.79875 | 8507 ft | 120 kts | 302° |
| 2026-05-04 13:29 | 25.54129 | 54.79003 | 8522 ft | 134 kts | 302° |
| 2026-05-04 13:30 | 25.54587 | 54.78061 | 8518 ft | 143 kts | 302° |
| 2026-05-04 13:30 | 25.55064 | 54.77075 | 8519 ft | 147 kts | 302° |
| 2026-05-04 13:30 | 25.55553 | 54.76064 | 8518 ft | 150 kts | 302° |
| 2026-05-04 13:30 | 25.56043 | 54.75056 | 8523 ft | 151 kts | 302° |
| 2026-05-04 13:31 | 25.56545 | 54.74028 | 8523 ft | 152 kts | 302° |
| 2026-05-04 13:31 | 25.57051 | 54.72993 | 8520 ft | 152 kts | 302° |
| 2026-05-04 13:31 | 25.57535 | 54.72004 | 8517 ft | 141 kts | 302° |
| 2026-05-04 13:31 | 25.57980 | 54.71075 | 8515 ft | 132 kts | 302° |
| 2026-05-04 13:32 | 25.58399 | 54.70194 | 8509 ft | 126 kts | 302° |
| 2026-05-04 13:32 | 25.58800 | 54.69345 | 8514 ft | 123 kts | 302° |
| 2026-05-04 13:32 | 25.59063 | 54.68787 | 8499 ft | 123 kts | 302° |
| 2026-05-04 13:32 | 25.59458 | 54.67943 | 8504 ft | 124 kts | 302° |
| 2026-05-04 13:33 | 25.59854 | 54.67098 | 8498 ft | 123 kts | 302° |
| 2026-05-04 13:33 | 25.60248 | 54.66253 | 8502 ft | 124 kts | 302° |
| 2026-05-04 13:33 | 25.60642 | 54.65411 | 8497 ft | 124 kts | 302° |
| 2026-05-04 13:33 | 25.61042 | 54.64555 | 8506 ft | 126 kts | 302° |
| 2026-05-04 13:34 | 25.61448 | 54.63684 | 8506 ft | 127 kts | 302° |
| 2026-05-04 13:34 | 25.61863 | 54.62799 | 8510 ft | 130 kts | 302° |
| 2026-05-04 13:34 | 25.62278 | 54.61920 | 8517 ft | 131 kts | 302° |
| 2026-05-04 13:34 | 25.62701 | 54.61023 | 8517 ft | 131 kts | 302° |
| 2026-05-04 13:35 | 25.63126 | 54.60126 | 8520 ft | 132 kts | 302° |
| 2026-05-04 13:35 | 25.63985 | 54.58321 | 8521 ft | 132 kts | 302° |
| 2026-05-04 13:35 | 25.64416 | 54.57417 | 8521 ft | 133 kts | 302° |
| 2026-05-04 13:36 | 25.64847 | 54.56508 | 8516 ft | 133 kts | 302° |
| 2026-05-04 13:36 | 25.65275 | 54.55601 | 8520 ft | 133 kts | 302° |
| 2026-05-04 13:36 | 25.65705 | 54.54688 | 8521 ft | 133 kts | 302° |
| 2026-05-04 13:36 | 25.66134 | 54.53778 | 8520 ft | 133 kts | 302° |
| 2026-05-04 13:37 | 25.66565 | 54.52866 | 8521 ft | 133 kts | 302° |
| 2026-05-04 13:37 | 25.66989 | 54.51969 | 8519 ft | 133 kts | 302° |
| 2026-05-04 13:37 | 25.67421 | 54.51061 | 8517 ft | 133 kts | 302° |
| 2026-05-04 13:37 | 25.67852 | 54.50154 | 8515 ft | 133 kts | 302° |
| 2026-05-04 13:38 | 25.68285 | 54.49245 | 8516 ft | 133 kts | 302° |
| 2026-05-04 13:38 | 25.68721 | 54.48338 | 8520 ft | 133 kts | 302° |
| 2026-05-04 13:38 | 25.69155 | 54.47438 | 8517 ft | 133 kts | 302° |
| 2026-05-04 13:38 | 25.69590 | 54.46534 | 8516 ft | 133 kts | 302° |
| 2026-05-04 13:39 | 25.70612 | 54.44404 | 8518 ft | 132 kts | 302° |
| 2026-05-04 13:39 | 25.72475 | 54.40523 | 8507 ft | 132 kts | 302° |
| 2026-05-04 13:39 | 25.72502 | 54.40466 | 8509 ft | 132 kts | 302° |
| 2026-05-04 13:39 | 25.72529 | 54.40410 | 8507 ft | 132 kts | 302° |
| 2026-05-04 13:40 | 25.72555 | 54.40354 | 8515 ft | 132 kts | 302° |
| 2026-05-04 13:40 | 25.72582 | 54.40297 | 8515 ft | 132 kts | 302° |
| 2026-05-04 13:40 | 25.72609 | 54.40241 | 8518 ft | 132 kts | 302° |
| 2026-05-04 13:40 | 25.72636 | 54.40184 | 8517 ft | 133 kts | 302° |
| 2026-05-04 13:41 | 25.72663 | 54.40127 | 8510 ft | 133 kts | 302° |
| 2026-05-04 13:41 | 25.72690 | 54.40072 | 8509 ft | 133 kts | 302° |
| 2026-05-04 13:41 | 25.72717 | 54.40015 | 8509 ft | 133 kts | 302° |
| 2026-05-04 13:42 | 25.72771 | 54.39902 | 8513 ft | 132 kts | 302° |
| 2026-05-04 13:42 | 25.72798 | 54.39846 | 8516 ft | 132 kts | 302° |
| 2026-05-04 13:42 | 25.72824 | 54.39790 | 8515 ft | 131 kts | 302° |
| 2026-05-04 13:42 | 25.72851 | 54.39734 | 8511 ft | 131 kts | 302° |
| 2026-05-04 13:43 | 25.72878 | 54.39678 | 8506 ft | 131 kts | 302° |
| 2026-05-04 13:43 | 25.72904 | 54.39622 | 8504 ft | 131 kts | 302° |
| 2026-05-04 13:43 | 25.72931 | 54.39567 | 8508 ft | 130 kts | 302° |
| 2026-05-04 13:43 | 25.72957 | 54.39511 | 8507 ft | 130 kts | 302° |
| 2026-05-04 13:44 | 25.72983 | 54.39456 | 8514 ft | 130 kts | 302° |
| 2026-05-04 13:44 | 25.73009 | 54.39401 | 8507 ft | 130 kts | 302° |
| 2026-05-04 13:44 | 25.73035 | 54.39346 | 8510 ft | 130 kts | 302° |
| 2026-05-04 13:44 | 25.73062 | 54.39290 | 8513 ft | 129 kts | 302° |
| 2026-05-04 13:45 | 25.73088 | 54.39235 | 8507 ft | 129 kts | 302° |
| 2026-05-04 13:45 | 25.73114 | 54.39180 | 8510 ft | 129 kts | 302° |
| 2026-05-04 13:45 | 25.73140 | 54.39125 | 8514 ft | 129 kts | 302° |
| 2026-05-04 13:45 | 25.73166 | 54.39070 | 8503 ft | 129 kts | 302° |
| 2026-05-04 13:46 | 25.73192 | 54.39015 | 8511 ft | 128 kts | 302° |
| 2026-05-04 13:46 | 25.73218 | 54.38961 | 8513 ft | 128 kts | 302° |
| 2026-05-04 13:46 | 25.73243 | 54.38906 | 8511 ft | 128 kts | 302° |
| 2026-05-04 13:46 | 25.73269 | 54.38852 | 8519 ft | 127 kts | 302° |
| 2026-05-04 13:47 | 25.73295 | 54.38797 | 8511 ft | 127 kts | 302° |